Hosin, República Checa

9:37 PM CEST en Julio 31, 2014 (GMT +0200)
IJIHOU019 Alt 1427 ft | 49.18 °N, 14.70 °E | Change Station

Current weather conditions updated 37 seconds ago

Mostly Cloudy
Muy nublado
65.7 ° F
Sensación térmica 65.7 ° F
N
0.0
Viento Variable Viento desde Norte
Gusts 0.0 mph

Mañana se prevé un día Más cálido que hoy.

Hoy
Alta -- | Baja -- ° F
--% Posibilidad de precipitaciones
Ayer
Alta -- | Baja -- ° F
Precip. -- pul
5:33 AM 8:42 PM
Creciente, 20% visible
Presión 30.01 pul
Visibilidad 5.0 Millas
Nubes Baja 1200 ft
Nubes dispersas 2700 ft
Muy nublado 4100 ft
Punto de rocío 61 ° F
Humedad 84%
Precipitaciones 0.18 pul
Espesor de la nieve No disponible.
UV 0 de una escala de 12
Polen No disponible.
Calidad del aire No disponible.
Flu Activity No disponible.
METAR LOWL 311920Z 15003KT 120V180 8000 FEW012 SCT027 BKN041 17/16 Q1016 NOSIG

More Conditions Fewer Conditions

Presión 30.01 pul
Visibilidad 5.0 Millas
Nubes Baja 1200 ft
Nubes dispersas 2700 ft
Muy nublado 4100 ft
Punto de rocío 61 ° F
Humedad 84%
Precipitaciones 0.18 pul
Espesor de la nieve No disponible.
UV 0 de una escala de 12
Polen No disponible.
Calidad del aire No disponible.
Flu Activity No disponible.
METAR LOWL 311920Z 15003KT 120V180 8000 FEW012 SCT027 BKN041 17/16 Q1016 NOSIG

More Conditions Fewer Conditions

10-Day Weather Forecast

Almanac

Astronomía

Jul. 31, 2014 Salida Puesta
Hora real 5:33 AM CEST 8:42 PM CEST
Crepúsculo civil 4:55 AM CEST 9:20 PM CEST
Crepúsculo náutico 4:05 AM CEST 10:09 PM CEST
Crepúsculo astronómico 3:02 AM CEST 11:11 PM CEST
Luna 10:10 AM CEST 10:18 PM CEST
Horas de luz 16h 25m
Horas de luz
15h 09m
Tomorrow will be 2m 48s shorter.
Creciente, 20% of the Moon is Illuminated
Hoy
Creciente
Ago 3
Cuarto creciente
Ago 10
Luna llena
Ago 17
Cuarto menguante
Ago 25
Nueva

Extremos de hoy

Máximos del país Bajas del país

Community

WunderPhotos

Upload Photos

1,739,426 ¡fotos cargadas!

Nearby

Calidad del aire

Not available.

Grosos de nieve

Not available.

Actividad de terremotos

Ciudad Distance Mag. Tiempo y dato
No hay informes recientes de la actividad sísmica.
Magnitud mínima muestra es 2,5.

Temperaturas de aguas costeras

Lugar Temperatura
Sin partes meteorológicos de las estaciones

Estaciones meteorológicas cercanas

Ubicación de la estación Temp. Punto de rocío Humedad Viento Precip. Alt Actualizado Tipo
Veseli nad Luznici 65.7 ° F 61 ° F 84% Norte  a  0.0 mph 0.00 pul / hr 1427 ft 9:36 PM CEST Rapid Fire
Halamky 61.9 ° F 62 ° F 100% Norte  a  0.0 mph 0.00 pul / hr 1512 ft 9:37 PM CEST Rapid Fire
Amut.NET, Pisek 62.4 ° F - 89% NE  a  1.8 mph 0.00 pul / hr 1351 ft 9:36 PM CEST Normal

Show More Stations Show Fewer Stations